sensor_id;sensor_type;location;lat;lon;timestamp;P1;durP1;ratioP1;P2;durP2;ratioP2
23496;SDS011;11925;48.122;11.560;2023-07-29T00:01:31;6.85;;;2.58;;
23496;SDS011;11925;48.122;11.560;2023-07-29T00:04:00;5.97;;;2.50;;
23496;SDS011;11925;48.122;11.560;2023-07-29T00:06:29;4.75;;;2.30;;
23496;SDS011;11925;48.122;11.560;2023-07-29T00:08:58;3.50;;;2.17;;
23496;SDS011;11925;48.122;11.560;2023-07-29T00:11:27;4.55;;;2.40;;
23496;SDS011;11925;48.122;11.560;2023-07-29T00:13:56;3.10;;;2.17;;
23496;SDS011;11925;48.122;11.560;2023-07-29T00:16:25;4.03;;;2.58;;
23496;SDS011;11925;48.122;11.560;2023-07-29T00:18:54;4.70;;;2.40;;
23496;SDS011;11925;48.122;11.560;2023-07-29T00:21:22;4.30;;;2.45;;
23496;SDS011;11925;48.122;11.560;2023-07-29T00:23:51;4.82;;;2.17;;
23496;SDS011;11925;48.122;11.560;2023-07-29T00:26:21;4.50;;;2.30;;
23496;SDS011;11925;48.122;11.560;2023-07-29T00:28:50;3.55;;;2.55;;
23496;SDS011;11925;48.122;11.560;2023-07-29T00:31:18;4.78;;;2.40;;
23496;SDS011;11925;48.122;11.560;2023-07-29T00:33:47;4.97;;;2.38;;
23496;SDS011;11925;48.122;11.560;2023-07-29T00:36:15;5.38;;;2.30;;
23496;SDS011;11925;48.122;11.560;2023-07-29T00:38:44;4.05;;;2.28;;
23496;SDS011;11925;48.122;11.560;2023-07-29T00:41:14;4.32;;;2.15;;
23496;SDS011;11925;48.122;11.560;2023-07-29T00:43:44;4.22;;;2.33;;
23496;SDS011;11925;48.122;11.560;2023-07-29T00:46:13;4.05;;;2.58;;
23496;SDS011;11925;48.122;11.560;2023-07-29T00:48:42;4.20;;;2.65;;
23496;SDS011;11925;48.122;11.560;2023-07-29T00:51:11;4.57;;;2.30;;
23496;SDS011;11925;48.122;11.560;2023-07-29T00:53:39;3.42;;;2.13;;
23496;SDS011;11925;48.122;11.560;2023-07-29T00:56:08;5.13;;;2.30;;
23496;SDS011;11925;48.122;11.560;2023-07-29T00:58:37;3.83;;;2.55;;
23496;SDS011;11925;48.122;11.560;2023-07-29T01:01:07;4.35;;;2.47;;
23496;SDS011;11925;48.122;11.560;2023-07-29T01:03:36;4.32;;;2.47;;
23496;SDS011;11925;48.122;11.560;2023-07-29T01:06:08;3.63;;;1.92;;
23496;SDS011;11925;48.122;11.560;2023-07-29T01:08:38;4.00;;;2.33;;
23496;SDS011;11925;48.122;11.560;2023-07-29T01:11:11;5.85;;;2.42;;
23496;SDS011;11925;48.122;11.560;2023-07-29T01:13:44;3.35;;;2.00;;
23496;SDS011;11925;48.122;11.560;2023-07-29T01:16:19;4.28;;;2.20;;
23496;SDS011;11925;48.122;11.560;2023-07-29T01:18:49;4.53;;;2.20;;
23496;SDS011;11925;48.122;11.560;2023-07-29T01:21:19;4.18;;;2.35;;
23496;SDS011;11925;48.122;11.560;2023-07-29T01:23:53;3.90;;;2.38;;
23496;SDS011;11925;48.122;11.560;2023-07-29T01:26:24;5.53;;;2.28;;
23496;SDS011;11925;48.122;11.560;2023-07-29T01:28:55;4.38;;;2.20;;
23496;SDS011;11925;48.122;11.560;2023-07-29T01:31:27;3.35;;;1.98;;
23496;SDS011;11925;48.122;11.560;2023-07-29T01:33:59;4.93;;;2.17;;
23496;SDS011;11925;48.122;11.560;2023-07-29T01:36:29;3.13;;;1.98;;
23496;SDS011;11925;48.122;11.560;2023-07-29T01:41:30;3.45;;;2.15;;
23496;SDS011;11925;48.122;11.560;2023-07-29T01:43:59;4.55;;;2.22;;
23496;SDS011;11925;48.122;11.560;2023-07-29T01:46:31;3.40;;;1.90;;
23496;SDS011;11925;48.122;11.560;2023-07-29T01:49:00;4.55;;;2.33;;
23496;SDS011;11925;48.122;11.560;2023-07-29T01:51:30;3.10;;;2.08;;
23496;SDS011;11925;48.122;11.560;2023-07-29T01:53:59;3.75;;;2.15;;
23496;SDS011;11925;48.122;11.560;2023-07-29T01:56:28;3.50;;;1.88;;
23496;SDS011;11925;48.122;11.560;2023-07-29T01:58:58;4.88;;;2.10;;
23496;SDS011;11925;48.122;11.560;2023-07-29T02:01:27;3.25;;;1.77;;
23496;SDS011;11925;48.122;11.560;2023-07-29T02:03:58;3.42;;;2.50;;
23496;SDS011;11925;48.122;11.560;2023-07-29T02:06:26;4.35;;;2.15;;
23496;SDS011;11925;48.122;11.560;2023-07-29T02:08:55;3.25;;;1.88;;
23496;SDS011;11925;48.122;11.560;2023-07-29T02:11:24;3.80;;;2.10;;
23496;SDS011;11925;48.122;11.560;2023-07-29T02:13:55;2.90;;;1.88;;
23496;SDS011;11925;48.122;11.560;2023-07-29T02:16:25;3.28;;;1.90;;
23496;SDS011;11925;48.122;11.560;2023-07-29T02:18:54;4.03;;;2.28;;
23496;SDS011;11925;48.122;11.560;2023-07-29T02:21:22;4.35;;;2.20;;
23496;SDS011;11925;48.122;11.560;2023-07-29T02:23:51;4.65;;;2.13;;
23496;SDS011;11925;48.122;11.560;2023-07-29T02:26:20;4.20;;;2.10;;
23496;SDS011;11925;48.122;11.560;2023-07-29T02:28:48;4.15;;;2.17;;
23496;SDS011;11925;48.122;11.560;2023-07-29T02:31:19;4.80;;;2.17;;
23496;SDS011;11925;48.122;11.560;2023-07-29T02:33:49;4.87;;;2.37;;
23496;SDS011;11925;48.122;11.560;2023-07-29T02:36:19;3.60;;;2.37;;
23496;SDS011;11925;48.122;11.560;2023-07-29T02:38:47;4.32;;;1.65;;
23496;SDS011;11925;48.122;11.560;2023-07-29T02:41:16;3.50;;;2.00;;
23496;SDS011;11925;48.122;11.560;2023-07-29T02:43:47;4.50;;;2.00;;
23496;SDS011;11925;48.122;11.560;2023-07-29T02:46:17;5.03;;;2.15;;
23496;SDS011;11925;48.122;11.560;2023-07-29T02:48:46;5.00;;;2.25;;
23496;SDS011;11925;48.122;11.560;2023-07-29T02:51:16;2.85;;;1.70;;
23496;SDS011;11925;48.122;11.560;2023-07-29T02:53:44;3.67;;;2.13;;
23496;SDS011;11925;48.122;11.560;2023-07-29T02:56:13;3.47;;;2.05;;
23496;SDS011;11925;48.122;11.560;2023-07-29T02:58:42;4.53;;;2.10;;
23496;SDS011;11925;48.122;11.560;2023-07-29T03:01:11;3.15;;;1.92;;
23496;SDS011;11925;48.122;11.560;2023-07-29T03:03:39;3.88;;;2.55;;
23496;SDS011;11925;48.122;11.560;2023-07-29T03:06:09;3.53;;;2.00;;
23496;SDS011;11925;48.122;11.560;2023-07-29T03:08:39;5.18;;;1.90;;
23496;SDS011;11925;48.122;11.560;2023-07-29T03:11:08;4.30;;;2.05;;
23496;SDS011;11925;48.122;11.560;2023-07-29T03:13:37;3.63;;;1.80;;
23496;SDS011;11925;48.122;11.560;2023-07-29T03:16:06;3.17;;;1.90;;
23496;SDS011;11925;48.122;11.560;2023-07-29T03:18:37;3.72;;;2.47;;
23496;SDS011;11925;48.122;11.560;2023-07-29T03:21:06;4.63;;;2.63;;
23496;SDS011;11925;48.122;11.560;2023-07-29T03:23:35;3.67;;;2.42;;
23496;SDS011;11925;48.122;11.560;2023-07-29T03:26:05;3.80;;;1.95;;
23496;SDS011;11925;48.122;11.560;2023-07-29T03:28:38;7.85;;;2.97;;
23496;SDS011;11925;48.122;11.560;2023-07-29T03:31:06;4.22;;;2.15;;
23496;SDS011;11925;48.122;11.560;2023-07-29T03:33:35;3.25;;;1.95;;
23496;SDS011;11925;48.122;11.560;2023-07-29T03:36:04;4.78;;;2.00;;
23496;SDS011;11925;48.122;11.560;2023-07-29T03:38:33;4.13;;;2.10;;
23496;SDS011;11925;48.122;11.560;2023-07-29T03:41:08;2.97;;;1.73;;
23496;SDS011;11925;48.122;11.560;2023-07-29T03:43:36;3.97;;;2.03;;
23496;SDS011;11925;48.122;11.560;2023-07-29T03:46:05;2.97;;;1.80;;
23496;SDS011;11925;48.122;11.560;2023-07-29T03:48:38;3.33;;;1.80;;
23496;SDS011;11925;48.122;11.560;2023-07-29T03:51:07;3.75;;;1.58;;
23496;SDS011;11925;48.122;11.560;2023-07-29T03:53:36;3.78;;;1.70;;
23496;SDS011;11925;48.122;11.560;2023-07-29T03:56:04;3.70;;;1.52;;
23496;SDS011;11925;48.122;11.560;2023-07-29T03:58:34;4.38;;;1.95;;
23496;SDS011;11925;48.122;11.560;2023-07-29T04:01:03;3.08;;;1.80;;
23496;SDS011;11925;48.122;11.560;2023-07-29T04:03:32;2.95;;;1.90;;
23496;SDS011;11925;48.122;11.560;2023-07-29T04:06:02;3.00;;;1.67;;
23496;SDS011;11925;48.122;11.560;2023-07-29T04:08:30;2.70;;;1.58;;
23496;SDS011;11925;48.122;11.560;2023-07-29T04:10:59;2.97;;;1.60;;
23496;SDS011;11925;48.122;11.560;2023-07-29T04:13:28;4.70;;;1.83;;
23496;SDS011;11925;48.122;11.560;2023-07-29T04:15:58;6.82;;;2.17;;
23496;SDS011;11925;48.122;11.560;2023-07-29T04:18:27;2.88;;;1.77;;
23496;SDS011;11925;48.122;11.560;2023-07-29T04:20:56;3.33;;;1.90;;
23496;SDS011;11925;48.122;11.560;2023-07-29T04:23:24;3.22;;;1.70;;
23496;SDS011;11925;48.122;11.560;2023-07-29T04:25:53;2.58;;;1.92;;
23496;SDS011;11925;48.122;11.560;2023-07-29T04:28:22;5.20;;;1.83;;
23496;SDS011;11925;48.122;11.560;2023-07-29T04:30:51;3.00;;;1.63;;
23496;SDS011;11925;48.122;11.560;2023-07-29T04:33:21;4.05;;;1.77;;
23496;SDS011;11925;48.122;11.560;2023-07-29T04:35:49;2.67;;;1.77;;
23496;SDS011;11925;48.122;11.560;2023-07-29T04:38:18;2.05;;;1.30;;
23496;SDS011;11925;48.122;11.560;2023-07-29T04:40:48;2.75;;;1.70;;
23496;SDS011;11925;48.122;11.560;2023-07-29T04:43:17;3.97;;;1.63;;
23496;SDS011;11925;48.122;11.560;2023-07-29T04:45:46;2.75;;;1.60;;
23496;SDS011;11925;48.122;11.560;2023-07-29T04:48:14;2.67;;;1.50;;
23496;SDS011;11925;48.122;11.560;2023-07-29T04:50:44;2.72;;;1.70;;
23496;SDS011;11925;48.122;11.560;2023-07-29T04:53:13;3.33;;;1.58;;
23496;SDS011;11925;48.122;11.560;2023-07-29T04:55:42;2.65;;;1.58;;
23496;SDS011;11925;48.122;11.560;2023-07-29T04:58:10;2.50;;;1.50;;
23496;SDS011;11925;48.122;11.560;2023-07-29T05:00:39;3.20;;;1.60;;
23496;SDS011;11925;48.122;11.560;2023-07-29T05:03:08;3.25;;;1.80;;
23496;SDS011;11925;48.122;11.560;2023-07-29T05:05:36;4.97;;;1.80;;
23496;SDS011;11925;48.122;11.560;2023-07-29T05:08:06;3.33;;;1.80;;
23496;SDS011;11925;48.122;11.560;2023-07-29T05:10:35;2.40;;;1.38;;
23496;SDS011;11925;48.122;11.560;2023-07-29T05:13:04;2.95;;;1.60;;
23496;SDS011;11925;48.122;11.560;2023-07-29T05:15:33;2.65;;;1.50;;
23496;SDS011;11925;48.122;11.560;2023-07-29T05:18:02;2.50;;;1.55;;
23496;SDS011;11925;48.122;11.560;2023-07-29T05:20:31;2.55;;;1.50;;
23496;SDS011;11925;48.122;11.560;2023-07-29T05:23:01;2.83;;;1.40;;
23496;SDS011;11925;48.122;11.560;2023-07-29T05:25:31;2.78;;;1.52;;
23496;SDS011;11925;48.122;11.560;2023-07-29T05:28:01;3.42;;;1.73;;
23496;SDS011;11925;48.122;11.560;2023-07-29T05:30:30;4.68;;;1.40;;
23496;SDS011;11925;48.122;11.560;2023-07-29T05:32:58;2.60;;;1.70;;
23496;SDS011;11925;48.122;11.560;2023-07-29T05:35:27;2.33;;;1.52;;
23496;SDS011;11925;48.122;11.560;2023-07-29T05:37:56;3.08;;;1.50;;
23496;SDS011;11925;48.122;11.560;2023-07-29T05:40:25;2.53;;;1.60;;
23496;SDS011;11925;48.122;11.560;2023-07-29T05:42:55;4.30;;;1.70;;
23496;SDS011;11925;48.122;11.560;2023-07-29T05:45:24;2.88;;;1.38;;
23496;SDS011;11925;48.122;11.560;2023-07-29T05:47:53;3.53;;;1.60;;
23496;SDS011;11925;48.122;11.560;2023-07-29T05:50:21;2.15;;;1.45;;
23496;SDS011;11925;48.122;11.560;2023-07-29T05:52:50;3.53;;;1.60;;
23496;SDS011;11925;48.122;11.560;2023-07-29T05:55:18;2.20;;;1.50;;
23496;SDS011;11925;48.122;11.560;2023-07-29T05:57:47;3.92;;;1.60;;
23496;SDS011;11925;48.122;11.560;2023-07-29T06:00:17;2.47;;;1.33;;
23496;SDS011;11925;48.122;11.560;2023-07-29T06:02:46;2.72;;;1.20;;
23496;SDS011;11925;48.122;11.560;2023-07-29T06:05:19;3.00;;;1.48;;
23496;SDS011;11925;48.122;11.560;2023-07-29T06:07:47;5.60;;;2.35;;
23496;SDS011;11925;48.122;11.560;2023-07-29T06:10:16;7.35;;;2.10;;
23496;SDS011;11925;48.122;11.560;2023-07-29T06:12:45;5.88;;;2.25;;
23496;SDS011;11925;48.122;11.560;2023-07-29T06:15:14;7.22;;;2.53;;
23496;SDS011;11925;48.122;11.560;2023-07-29T06:17:45;7.25;;;2.40;;
23496;SDS011;11925;48.122;11.560;2023-07-29T06:20:14;4.90;;;2.15;;
23496;SDS011;11925;48.122;11.560;2023-07-29T06:22:43;4.80;;;2.00;;
23496;SDS011;11925;48.122;11.560;2023-07-29T06:25:11;4.28;;;2.20;;
23496;SDS011;11925;48.122;11.560;2023-07-29T06:27:40;5.53;;;2.20;;
23496;SDS011;11925;48.122;11.560;2023-07-29T06:30:09;5.97;;;1.92;;
23496;SDS011;11925;48.122;11.560;2023-07-29T06:32:37;4.25;;;1.73;;
23496;SDS011;11925;48.122;11.560;2023-07-29T06:35:08;3.70;;;1.80;;
23496;SDS011;11925;48.122;11.560;2023-07-29T06:37:36;3.30;;;2.03;;
23496;SDS011;11925;48.122;11.560;2023-07-29T06:40:05;4.65;;;2.58;;
23496;SDS011;11925;48.122;11.560;2023-07-29T06:42:34;4.63;;;2.25;;
23496;SDS011;11925;48.122;11.560;2023-07-29T06:45:04;3.28;;;2.20;;
23496;SDS011;11925;48.122;11.560;2023-07-29T06:47:33;4.95;;;2.15;;
23496;SDS011;11925;48.122;11.560;2023-07-29T06:50:02;6.97;;;4.57;;
23496;SDS011;11925;48.122;11.560;2023-07-29T06:52:31;4.45;;;2.78;;
23496;SDS011;11925;48.122;11.560;2023-07-29T06:55:00;4.63;;;2.60;;
23496;SDS011;11925;48.122;11.560;2023-07-29T06:57:28;6.43;;;2.45;;
23496;SDS011;11925;48.122;11.560;2023-07-29T06:59:56;4.32;;;2.35;;
23496;SDS011;11925;48.122;11.560;2023-07-29T07:02:25;4.88;;;2.30;;
23496;SDS011;11925;48.122;11.560;2023-07-29T07:04:53;5.63;;;2.10;;
23496;SDS011;11925;48.122;11.560;2023-07-29T07:07:22;6.07;;;2.35;;
23496;SDS011;11925;48.122;11.560;2023-07-29T07:09:51;5.00;;;2.30;;
23496;SDS011;11925;48.122;11.560;2023-07-29T07:12:20;5.88;;;2.25;;
23496;SDS011;11925;48.122;11.560;2023-07-29T07:14:48;4.55;;;2.15;;
23496;SDS011;11925;48.122;11.560;2023-07-29T07:17:16;5.25;;;2.08;;
23496;SDS011;11925;48.122;11.560;2023-07-29T07:19:45;7.20;;;2.05;;
23496;SDS011;11925;48.122;11.560;2023-07-29T07:22:13;6.47;;;2.13;;
23496;SDS011;11925;48.122;11.560;2023-07-29T07:24:42;4.68;;;2.00;;
23496;SDS011;11925;48.122;11.560;2023-07-29T07:27:13;6.50;;;2.10;;
23496;SDS011;11925;48.122;11.560;2023-07-29T07:29:42;7.35;;;2.40;;
23496;SDS011;11925;48.122;11.560;2023-07-29T07:32:10;5.65;;;2.78;;
23496;SDS011;11925;48.122;11.560;2023-07-29T07:34:38;6.00;;;2.17;;
23496;SDS011;11925;48.122;11.560;2023-07-29T07:37:07;7.40;;;2.08;;
23496;SDS011;11925;48.122;11.560;2023-07-29T07:39:36;4.97;;;2.42;;
23496;SDS011;11925;48.122;11.560;2023-07-29T07:42:05;6.30;;;2.75;;
23496;SDS011;11925;48.122;11.560;2023-07-29T07:44:35;5.63;;;2.20;;
23496;SDS011;11925;48.122;11.560;2023-07-29T07:47:03;5.80;;;2.60;;
23496;SDS011;11925;48.122;11.560;2023-07-29T07:49:32;3.95;;;1.85;;
23496;SDS011;11925;48.122;11.560;2023-07-29T07:52:01;4.78;;;2.38;;
23496;SDS011;11925;48.122;11.560;2023-07-29T07:54:29;5.07;;;2.40;;
23496;SDS011;11925;48.122;11.560;2023-07-29T07:56:58;7.03;;;2.60;;
23496;SDS011;11925;48.122;11.560;2023-07-29T07:59:26;3.80;;;2.08;;
23496;SDS011;11925;48.122;11.560;2023-07-29T08:01:56;5.57;;;2.53;;
23496;SDS011;11925;48.122;11.560;2023-07-29T08:04:25;4.72;;;2.30;;
23496;SDS011;11925;48.122;11.560;2023-07-29T08:06:53;4.35;;;2.40;;
23496;SDS011;11925;48.122;11.560;2023-07-29T08:09:22;4.32;;;2.33;;
23496;SDS011;11925;48.122;11.560;2023-07-29T08:11:51;5.22;;;2.40;;
23496;SDS011;11925;48.122;11.560;2023-07-29T08:14:19;3.33;;;2.25;;
23496;SDS011;11925;48.122;11.560;2023-07-29T08:16:48;4.65;;;2.42;;
23496;SDS011;11925;48.122;11.560;2023-07-29T08:19:18;4.38;;;2.42;;
23496;SDS011;11925;48.122;11.560;2023-07-29T08:21:48;3.45;;;2.10;;
23496;SDS011;11925;48.122;11.560;2023-07-29T08:24:17;3.13;;;2.00;;
23496;SDS011;11925;48.122;11.560;2023-07-29T08:26:45;4.70;;;2.17;;
23496;SDS011;11925;48.122;11.560;2023-07-29T08:29:14;4.72;;;2.60;;
23496;SDS011;11925;48.122;11.560;2023-07-29T08:31:42;3.75;;;2.20;;
23496;SDS011;11925;48.122;11.560;2023-07-29T08:34:11;3.40;;;2.20;;
23496;SDS011;11925;48.122;11.560;2023-07-29T08:36:41;3.08;;;2.00;;
23496;SDS011;11925;48.122;11.560;2023-07-29T08:39:10;3.25;;;2.00;;
23496;SDS011;11925;48.122;11.560;2023-07-29T08:41:41;4.20;;;2.33;;
23496;SDS011;11925;48.122;11.560;2023-07-29T08:44:11;4.13;;;2.20;;
23496;SDS011;11925;48.122;11.560;2023-07-29T08:46:40;4.80;;;2.42;;
23496;SDS011;11925;48.122;11.560;2023-07-29T08:49:11;3.88;;;2.70;;
23496;SDS011;11925;48.122;11.560;2023-07-29T08:51:43;3.67;;;2.38;;
23496;SDS011;11925;48.122;11.560;2023-07-29T08:54:12;2.67;;;2.03;;
23496;SDS011;11925;48.122;11.560;2023-07-29T08:56:41;4.30;;;1.92;;
23496;SDS011;11925;48.122;11.560;2023-07-29T08:59:10;4.53;;;2.72;;
23496;SDS011;11925;48.122;11.560;2023-07-29T09:01:39;3.95;;;2.17;;
23496;SDS011;11925;48.122;11.560;2023-07-29T09:04:08;3.85;;;2.30;;
23496;SDS011;11925;48.122;11.560;2023-07-29T09:06:36;3.42;;;2.22;;
23496;SDS011;11925;48.122;11.560;2023-07-29T09:09:08;2.90;;;1.90;;
23496;SDS011;11925;48.122;11.560;2023-07-29T09:11:37;4.75;;;2.65;;
23496;SDS011;11925;48.122;11.560;2023-07-29T09:14:05;3.80;;;2.25;;
23496;SDS011;11925;48.122;11.560;2023-07-29T09:16:34;3.35;;;2.00;;
23496;SDS011;11925;48.122;11.560;2023-07-29T09:19:03;4.97;;;2.30;;
23496;SDS011;11925;48.122;11.560;2023-07-29T09:21:32;4.07;;;2.33;;
23496;SDS011;11925;48.122;11.560;2023-07-29T09:24:02;3.42;;;2.10;;
23496;SDS011;11925;48.122;11.560;2023-07-29T09:26:32;4.57;;;2.38;;
23496;SDS011;11925;48.122;11.560;2023-07-29T09:29:02;3.33;;;2.07;;
23496;SDS011;11925;48.122;11.560;2023-07-29T09:31:30;3.70;;;2.38;;
23496;SDS011;11925;48.122;11.560;2023-07-29T09:34:00;4.15;;;2.35;;
23496;SDS011;11925;48.122;11.560;2023-07-29T09:36:30;3.67;;;2.25;;
23496;SDS011;11925;48.122;11.560;2023-07-29T09:38:59;3.42;;;2.33;;
23496;SDS011;11925;48.122;11.560;2023-07-29T09:41:28;4.05;;;2.10;;
23496;SDS011;11925;48.122;11.560;2023-07-29T09:43:59;4.25;;;2.60;;
23496;SDS011;11925;48.122;11.560;2023-07-29T09:46:31;4.63;;;2.50;;
23496;SDS011;11925;48.122;11.560;2023-07-29T09:49:01;4.78;;;2.92;;
23496;SDS011;11925;48.122;11.560;2023-07-29T09:51:30;4.95;;;2.50;;
23496;SDS011;11925;48.122;11.560;2023-07-29T09:54:01;4.10;;;2.60;;
23496;SDS011;11925;48.122;11.560;2023-07-29T09:56:30;3.45;;;2.33;;
23496;SDS011;11925;48.122;11.560;2023-07-29T09:59:01;4.50;;;2.70;;
23496;SDS011;11925;48.122;11.560;2023-07-29T10:01:31;5.13;;;2.97;;
23496;SDS011;11925;48.122;11.560;2023-07-29T10:04:02;4.80;;;3.07;;
23496;SDS011;11925;48.122;11.560;2023-07-29T10:06:32;6.20;;;3.13;;
23496;SDS011;11925;48.122;11.560;2023-07-29T10:09:02;4.90;;;2.63;;
23496;SDS011;11925;48.122;11.560;2023-07-29T10:11:32;4.25;;;2.75;;
23496;SDS011;11925;48.122;11.560;2023-07-29T10:14:03;4.28;;;3.05;;
23496;SDS011;11925;48.122;11.560;2023-07-29T10:16:35;4.70;;;2.80;;
23496;SDS011;11925;48.122;11.560;2023-07-29T10:19:05;3.97;;;2.60;;
23496;SDS011;11925;48.122;11.560;2023-07-29T10:21:36;4.70;;;2.72;;
23496;SDS011;11925;48.122;11.560;2023-07-29T10:24:08;4.15;;;2.55;;
23496;SDS011;11925;48.122;11.560;2023-07-29T10:26:38;5.78;;;2.60;;
23496;SDS011;11925;48.122;11.560;2023-07-29T10:29:12;3.60;;;2.28;;
23496;SDS011;11925;48.122;11.560;2023-07-29T10:31:42;3.30;;;2.40;;
23496;SDS011;11925;48.122;11.560;2023-07-29T10:34:11;5.22;;;3.15;;
23496;SDS011;11925;48.122;11.560;2023-07-29T10:36:40;3.95;;;2.65;;
23496;SDS011;11925;48.122;11.560;2023-07-29T10:39:09;3.83;;;2.50;;
23496;SDS011;11925;48.122;11.560;2023-07-29T10:44:51;4.57;;;2.92;;
23496;SDS011;11925;48.122;11.560;2023-07-29T10:47:22;5.85;;;2.95;;
23496;SDS011;11925;48.122;11.560;2023-07-29T10:49:52;4.90;;;2.97;;
23496;SDS011;11925;48.122;11.560;2023-07-29T10:52:28;3.72;;;2.50;;
23496;SDS011;11925;48.122;11.560;2023-07-29T10:54:58;4.00;;;2.70;;
23496;SDS011;11925;48.122;11.560;2023-07-29T10:57:31;4.68;;;3.10;;
23496;SDS011;11925;48.122;11.560;2023-07-29T11:00:02;4.82;;;2.80;;
23496;SDS011;11925;48.122;11.560;2023-07-29T11:02:34;4.72;;;2.70;;
23496;SDS011;11925;48.122;11.560;2023-07-29T11:05:04;3.95;;;2.67;;
23496;SDS011;11925;48.122;11.560;2023-07-29T11:07:42;4.55;;;3.13;;
23496;SDS011;11925;48.122;11.560;2023-07-29T11:10:12;3.92;;;2.63;;
23496;SDS011;11925;48.122;11.560;2023-07-29T11:12:42;4.47;;;3.00;;
23496;SDS011;11925;48.122;11.560;2023-07-29T11:15:15;6.35;;;3.38;;
23496;SDS011;11925;48.122;11.560;2023-07-29T11:17:46;5.07;;;3.10;;
23496;SDS011;11925;48.122;11.560;2023-07-29T11:20:16;4.80;;;3.45;;
23496;SDS011;11925;48.122;11.560;2023-07-29T11:22:45;5.07;;;3.40;;
23496;SDS011;11925;48.122;11.560;2023-07-29T11:25:14;4.78;;;3.30;;
23496;SDS011;11925;48.122;11.560;2023-07-29T11:27:44;4.55;;;3.03;;
23496;SDS011;11925;48.122;11.560;2023-07-29T11:30:15;4.20;;;3.08;;
23496;SDS011;11925;48.122;11.560;2023-07-29T11:32:44;3.83;;;3.13;;
23496;SDS011;11925;48.122;11.560;2023-07-29T11:35:14;4.03;;;2.75;;
23496;SDS011;11925;48.122;11.560;2023-07-29T11:37:45;2.83;;;2.38;;
23496;SDS011;11925;48.122;11.560;2023-07-29T11:40:14;3.88;;;2.28;;
23496;SDS011;11925;48.122;11.560;2023-07-29T11:42:44;4.13;;;2.22;;
23496;SDS011;11925;48.122;11.560;2023-07-29T11:45:15;3.38;;;2.30;;
23496;SDS011;11925;48.122;11.560;2023-07-29T11:47:44;4.72;;;2.33;;
23496;SDS011;11925;48.122;11.560;2023-07-29T11:50:13;3.63;;;1.90;;
23496;SDS011;11925;48.122;11.560;2023-07-29T11:52:43;4.00;;;2.25;;
23496;SDS011;11925;48.122;11.560;2023-07-29T11:55:14;3.15;;;2.08;;
23496;SDS011;11925;48.122;11.560;2023-07-29T11:57:45;3.78;;;2.33;;
23496;SDS011;11925;48.122;11.560;2023-07-29T12:00:19;3.75;;;2.20;;
23496;SDS011;11925;48.122;11.560;2023-07-29T12:02:49;3.75;;;2.30;;
23496;SDS011;11925;48.122;11.560;2023-07-29T12:05:17;3.88;;;2.10;;
23496;SDS011;11925;48.122;11.560;2023-07-29T12:07:48;3.92;;;2.30;;
23496;SDS011;11925;48.122;11.560;2023-07-29T12:10:16;3.20;;;2.17;;
23496;SDS011;11925;48.122;11.560;2023-07-29T12:12:48;3.20;;;2.13;;
23496;SDS011;11925;48.122;11.560;2023-07-29T12:15:24;3.60;;;2.30;;
23496;SDS011;11925;48.122;11.560;2023-07-29T12:17:54;4.53;;;2.60;;
23496;SDS011;11925;48.122;11.560;2023-07-29T12:20:24;3.77;;;2.10;;
23496;SDS011;11925;48.122;11.560;2023-07-29T12:22:53;3.22;;;2.22;;
23496;SDS011;11925;48.122;11.560;2023-07-29T12:25:22;3.88;;;2.38;;
23496;SDS011;11925;48.122;11.560;2023-07-29T12:27:51;3.03;;;2.15;;
23496;SDS011;11925;48.122;11.560;2023-07-29T12:30:20;4.63;;;2.15;;
23496;SDS011;11925;48.122;11.560;2023-07-29T12:32:50;3.45;;;2.47;;
23496;SDS011;11925;48.122;11.560;2023-07-29T12:35:19;6.13;;;2.35;;
23496;SDS011;11925;48.122;11.560;2023-07-29T12:37:57;3.88;;;2.40;;
23496;SDS011;11925;48.122;11.560;2023-07-29T12:40:26;3.67;;;2.15;;
23496;SDS011;11925;48.122;11.560;2023-07-29T12:42:55;5.32;;;2.35;;
23496;SDS011;11925;48.122;11.560;2023-07-29T12:45:24;3.55;;;2.53;;
23496;SDS011;11925;48.122;11.560;2023-07-29T12:47:57;5.63;;;2.60;;
23496;SDS011;11925;48.122;11.560;2023-07-29T12:50:25;4.85;;;2.55;;
23496;SDS011;11925;48.122;11.560;2023-07-29T12:52:54;4.20;;;2.88;;
23496;SDS011;11925;48.122;11.560;2023-07-29T12:55:23;3.55;;;2.45;;
23496;SDS011;11925;48.122;11.560;2023-07-29T12:57:52;3.90;;;2.50;;
23496;SDS011;11925;48.122;11.560;2023-07-29T13:00:21;4.85;;;3.08;;
23496;SDS011;11925;48.122;11.560;2023-07-29T13:02:49;3.20;;;2.55;;
23496;SDS011;11925;48.122;11.560;2023-07-29T13:05:19;5.95;;;2.90;;
23496;SDS011;11925;48.122;11.560;2023-07-29T13:07:48;4.05;;;2.45;;
23496;SDS011;11925;48.122;11.560;2023-07-29T13:10:17;5.68;;;2.75;;
23496;SDS011;11925;48.122;11.560;2023-07-29T13:12:46;3.88;;;2.60;;
23496;SDS011;11925;48.122;11.560;2023-07-29T13:15:15;7.97;;;2.88;;
23496;SDS011;11925;48.122;11.560;2023-07-29T13:17:44;4.68;;;2.83;;
23496;SDS011;11925;48.122;11.560;2023-07-29T13:20:12;4.88;;;2.90;;
23496;SDS011;11925;48.122;11.560;2023-07-29T13:22:42;6.50;;;3.17;;
23496;SDS011;11925;48.122;11.560;2023-07-29T13:25:11;8.10;;;3.22;;
23496;SDS011;11925;48.122;11.560;2023-07-29T13:27:39;5.95;;;3.33;;
23496;SDS011;11925;48.122;11.560;2023-07-29T13:30:08;8.95;;;3.28;;
23496;SDS011;11925;48.122;11.560;2023-07-29T13:32:37;5.38;;;3.30;;
23496;SDS011;11925;48.122;11.560;2023-07-29T13:35:06;5.65;;;3.35;;
23496;SDS011;11925;48.122;11.560;2023-07-29T13:37:35;5.68;;;3.42;;
23496;SDS011;11925;48.122;11.560;2023-07-29T13:40:06;5.38;;;3.05;;
23496;SDS011;11925;48.122;11.560;2023-07-29T13:42:35;5.50;;;2.95;;
23496;SDS011;11925;48.122;11.560;2023-07-29T13:45:04;5.53;;;3.05;;
23496;SDS011;11925;48.122;11.560;2023-07-29T13:47:32;5.50;;;3.00;;
23496;SDS011;11925;48.122;11.560;2023-07-29T13:50:01;4.28;;;3.08;;
23496;SDS011;11925;48.122;11.560;2023-07-29T13:52:30;6.10;;;3.25;;
23496;SDS011;11925;48.122;11.560;2023-07-29T13:54:58;5.20;;;3.20;;
23496;SDS011;11925;48.122;11.560;2023-07-29T13:57:28;4.65;;;3.40;;
23496;SDS011;11925;48.122;11.560;2023-07-29T13:59:57;193.40;;;129.57;;
23496;SDS011;11925;48.122;11.560;2023-07-29T14:02:26;202.88;;;135.60;;
23496;SDS011;11925;48.122;11.560;2023-07-29T14:04:55;224.85;;;147.70;;
23496;SDS011;11925;48.122;11.560;2023-07-29T14:07:23;170.35;;;115.00;;
23496;SDS011;11925;48.122;11.560;2023-07-29T14:09:52;158.35;;;106.72;;
23496;SDS011;11925;48.122;11.560;2023-07-29T14:12:21;128.43;;;85.28;;
23496;SDS011;11925;48.122;11.560;2023-07-29T14:14:51;158.77;;;95.72;;
23496;SDS011;11925;48.122;11.560;2023-07-29T14:17:19;110.15;;;64.07;;
23496;SDS011;11925;48.122;11.560;2023-07-29T14:19:48;90.68;;;50.70;;
23496;SDS011;11925;48.122;11.560;2023-07-29T14:22:17;195.65;;;116.95;;
23496;SDS011;11925;48.122;11.560;2023-07-29T14:24:45;203.50;;;129.82;;
23496;SDS011;11925;48.122;11.560;2023-07-29T14:27:14;206.45;;;123.72;;
23496;SDS011;11925;48.122;11.560;2023-07-29T14:29:43;249.32;;;153.52;;
23496;SDS011;11925;48.122;11.560;2023-07-29T14:32:13;217.68;;;140.02;;
23496;SDS011;11925;48.122;11.560;2023-07-29T14:34:41;276.25;;;180.40;;
23496;SDS011;11925;48.122;11.560;2023-07-29T14:37:10;244.05;;;145.57;;
23496;SDS011;11925;48.122;11.560;2023-07-29T14:39:39;175.43;;;111.85;;
23496;SDS011;11925;48.122;11.560;2023-07-29T14:42:07;156.57;;;99.85;;
23496;SDS011;11925;48.122;11.560;2023-07-29T14:44:36;149.07;;;95.82;;
23496;SDS011;11925;48.122;11.560;2023-07-29T14:47:05;121.55;;;76.38;;
23496;SDS011;11925;48.122;11.560;2023-07-29T14:49:35;117.72;;;74.07;;